sensor_id;sensor_type;location;lat;lon;timestamp;pressure;altitude;pressure_sealevel;temperature;humidity
21900;BME280;11114;50.658;12.704;2022-07-12T00:02:01;96745.66;;;15.47;64.41
21900;BME280;11114;50.658;12.704;2022-07-12T00:04:28;96745.88;;;15.60;64.15
21900;BME280;11114;50.658;12.704;2022-07-12T00:06:55;96737.13;;;15.67;64.15
21900;BME280;11114;50.658;12.704;2022-07-12T00:09:22;96742.41;;;15.67;64.34
21900;BME280;11114;50.658;12.704;2022-07-12T00:11:49;96740.41;;;15.69;64.55
21900;BME280;11114;50.658;12.704;2022-07-12T00:14:16;96739.63;;;15.61;65.02
21900;BME280;11114;50.658;12.704;2022-07-12T00:16:42;96749.22;;;15.54;65.36
21900;BME280;11114;50.658;12.704;2022-07-12T00:19:09;96746.72;;;15.61;65.40
21900;BME280;11114;50.658;12.704;2022-07-12T00:21:36;96740.22;;;15.71;65.40
21900;BME280;11114;50.658;12.704;2022-07-12T00:24:03;96731.16;;;15.73;65.35
21900;BME280;11114;50.658;12.704;2022-07-12T00:26:30;96743.44;;;15.81;65.37
21900;BME280;11114;50.658;12.704;2022-07-12T00:28:57;96743.06;;;15.84;65.52
21900;BME280;11114;50.658;12.704;2022-07-12T00:31:24;96743.38;;;15.89;65.53
21900;BME280;11114;50.658;12.704;2022-07-12T00:33:51;96736.66;;;15.86;65.61
21900;BME280;11114;50.658;12.704;2022-07-12T00:36:18;96747.47;;;15.91;65.63
21900;BME280;11114;50.658;12.704;2022-07-12T00:38:46;96745.84;;;15.90;65.54
21900;BME280;11114;50.658;12.704;2022-07-12T00:41:13;96749.31;;;15.91;65.70
21900;BME280;11114;50.658;12.704;2022-07-12T00:43:40;96748.41;;;15.98;65.50
21900;BME280;11114;50.658;12.704;2022-07-12T00:46:09;96752.34;;;16.02;65.55
21900;BME280;11114;50.658;12.704;2022-07-12T00:48:36;96754.97;;;16.02;65.69
21900;BME280;11114;50.658;12.704;2022-07-12T00:51:03;96747.72;;;16.04;65.63
21900;BME280;11114;50.658;12.704;2022-07-12T00:53:30;96740.97;;;16.02;66.07
21900;BME280;11114;50.658;12.704;2022-07-12T00:55:57;96740.75;;;16.11;65.90
21900;BME280;11114;50.658;12.704;2022-07-12T00:58:25;96734.09;;;16.15;65.77
21900;BME280;11114;50.658;12.704;2022-07-12T01:00:55;96739.38;;;16.15;65.69
21900;BME280;11114;50.658;12.704;2022-07-12T01:03:25;96743.28;;;16.19;65.80
21900;BME280;11114;50.658;12.704;2022-07-12T01:05:54;96738.50;;;16.23;65.60
21900;BME280;11114;50.658;12.704;2022-07-12T01:08:22;96745.59;;;16.22;65.81
21900;BME280;11114;50.658;12.704;2022-07-12T01:10:50;96737.84;;;16.21;65.72
21900;BME280;11114;50.658;12.704;2022-07-12T01:13:17;96733.47;;;16.13;66.24
21900;BME280;11114;50.658;12.704;2022-07-12T01:15:44;96736.84;;;16.22;66.01
21900;BME280;11114;50.658;12.704;2022-07-12T01:18:12;96730.41;;;16.24;65.98
21900;BME280;11114;50.658;12.704;2022-07-12T01:20:39;96732.66;;;16.13;66.25
21900;BME280;11114;50.658;12.704;2022-07-12T01:23:06;96737.25;;;16.11;66.44
21900;BME280;11114;50.658;12.704;2022-07-12T01:25:34;96739.91;;;16.11;66.60
21900;BME280;11114;50.658;12.704;2022-07-12T01:28:02;96735.59;;;16.18;66.34
21900;BME280;11114;50.658;12.704;2022-07-12T01:30:29;96733.56;;;16.20;66.31
21900;BME280;11114;50.658;12.704;2022-07-12T01:32:57;96740.66;;;16.19;66.25
21900;BME280;11114;50.658;12.704;2022-07-12T01:35:25;96740.00;;;16.17;66.47
21900;BME280;11114;50.658;12.704;2022-07-12T01:37:52;96740.41;;;16.14;66.53
21900;BME280;11114;50.658;12.704;2022-07-12T01:40:19;96740.75;;;16.11;66.70
21900;BME280;11114;50.658;12.704;2022-07-12T01:42:48;96755.72;;;16.11;66.89
21900;BME280;11114;50.658;12.704;2022-07-12T01:45:15;96742.00;;;16.15;66.94
21900;BME280;11114;50.658;12.704;2022-07-12T01:47:42;96743.19;;;16.13;66.90
21900;BME280;11114;50.658;12.704;2022-07-12T01:50:10;96737.25;;;16.11;67.06
21900;BME280;11114;50.658;12.704;2022-07-12T01:52:39;96748.72;;;16.03;67.23
21900;BME280;11114;50.658;12.704;2022-07-12T01:55:06;96739.69;;;15.98;67.47
21900;BME280;11114;50.658;12.704;2022-07-12T01:57:33;96739.44;;;16.07;67.46
21900;BME280;11114;50.658;12.704;2022-07-12T02:00:04;96738.44;;;16.08;67.28
21900;BME280;11114;50.658;12.704;2022-07-12T02:02:32;96739.56;;;16.14;67.78
21900;BME280;11114;50.658;12.704;2022-07-12T02:05:00;96737.25;;;16.11;67.04
21900;BME280;11114;50.658;12.704;2022-07-12T02:07:27;96749.16;;;16.07;67.23
21900;BME280;11114;50.658;12.704;2022-07-12T02:09:54;96735.34;;;16.05;67.39
21900;BME280;11114;50.658;12.704;2022-07-12T02:12:21;96742.97;;;16.00;67.40
21900;BME280;11114;50.658;12.704;2022-07-12T02:14:48;96736.00;;;16.07;67.51
21900;BME280;11114;50.658;12.704;2022-07-12T02:17:15;96729.47;;;16.17;67.25
21900;BME280;11114;50.658;12.704;2022-07-12T02:19:43;96732.75;;;16.19;67.25
21900;BME280;11114;50.658;12.704;2022-07-12T02:22:10;96730.78;;;16.21;67.29
21900;BME280;11114;50.658;12.704;2022-07-12T02:24:37;96734.06;;;16.23;67.13
21900;BME280;11114;50.658;12.704;2022-07-12T02:27:04;96733.56;;;16.20;67.35
21900;BME280;11114;50.658;12.704;2022-07-12T02:29:31;96731.41;;;16.23;67.23
21900;BME280;11114;50.658;12.704;2022-07-12T02:31:58;96732.50;;;16.29;67.29
21900;BME280;11114;50.658;12.704;2022-07-12T02:34:25;96746.03;;;16.26;67.26
21900;BME280;11114;50.658;12.704;2022-07-12T02:36:52;96741.31;;;16.21;67.38
21900;BME280;11114;50.658;12.704;2022-07-12T02:39:18;96740.66;;;16.19;67.45
21900;BME280;11114;50.658;12.704;2022-07-12T02:41:45;96750.81;;;16.08;67.82
21900;BME280;11114;50.658;12.704;2022-07-12T02:44:12;96749.81;;;16.09;67.84
21900;BME280;11114;50.658;12.704;2022-07-12T02:46:39;96754.56;;;16.13;67.84
21900;BME280;11114;50.658;12.704;2022-07-12T02:49:06;96752.19;;;16.18;67.80
21900;BME280;11114;50.658;12.704;2022-07-12T02:51:33;96746.94;;;16.18;67.63
21900;BME280;11114;50.658;12.704;2022-07-12T02:54:00;96751.63;;;16.08;68.04
21900;BME280;11114;50.658;12.704;2022-07-12T02:56:27;96759.91;;;16.05;68.24
21900;BME280;11114;50.658;12.704;2022-07-12T02:58:54;96757.88;;;16.07;68.25
21900;BME280;11114;50.658;12.704;2022-07-12T03:01:20;96760.50;;;16.07;68.29
21900;BME280;11114;50.658;12.704;2022-07-12T03:03:47;96759.19;;;16.11;68.27
21900;BME280;11114;50.658;12.704;2022-07-12T03:06:14;96767.16;;;16.03;68.34
21900;BME280;11114;50.658;12.704;2022-07-12T03:08:42;96764.66;;;16.02;68.62
21900;BME280;11114;50.658;12.704;2022-07-12T03:11:09;96765.69;;;16.01;68.76
21900;BME280;11114;50.658;12.704;2022-07-12T03:13:36;96760.69;;;16.06;68.65
21900;BME280;11114;50.658;12.704;2022-07-12T03:16:03;96765.44;;;16.10;68.52
21900;BME280;11114;50.658;12.704;2022-07-12T03:18:29;96764.03;;;16.00;68.73
21900;BME280;11114;50.658;12.704;2022-07-12T03:20:57;96770.47;;;15.97;68.75
21900;BME280;11114;50.658;12.704;2022-07-12T03:23:24;96775.72;;;15.97;68.80
21900;BME280;11114;50.658;12.704;2022-07-12T03:25:51;96772.09;;;15.98;69.00
21900;BME280;11114;50.658;12.704;2022-07-12T03:28:17;96778.34;;;16.05;68.86
21900;BME280;11114;50.658;12.704;2022-07-12T03:30:44;96776.84;;;16.03;69.05
21900;BME280;11114;50.658;12.704;2022-07-12T03:33:11;96776.84;;;16.03;69.04
21900;BME280;11114;50.658;12.704;2022-07-12T03:35:38;96787.69;;;16.08;69.04
21900;BME280;11114;50.658;12.704;2022-07-12T03:38:05;96789.16;;;16.10;68.86
21900;BME280;11114;50.658;12.704;2022-07-12T03:40:32;96785.72;;;16.10;68.83
21900;BME280;11114;50.658;12.704;2022-07-12T03:43:00;96778.94;;;16.07;69.09
21900;BME280;11114;50.658;12.704;2022-07-12T03:45:27;96783.16;;;16.16;68.78
21900;BME280;11114;50.658;12.704;2022-07-12T03:47:54;96781.88;;;16.12;69.00
21900;BME280;11114;50.658;12.704;2022-07-12T03:50:21;96785.59;;;16.03;69.12
21900;BME280;11114;50.658;12.704;2022-07-12T03:52:47;96789.22;;;16.02;69.26
21900;BME280;11114;50.658;12.704;2022-07-12T03:55:15;96780.84;;;15.99;69.37
21900;BME280;11114;50.658;12.704;2022-07-12T03:57:42;96784.81;;;15.95;69.52
21900;BME280;11114;50.658;12.704;2022-07-12T04:00:11;96781.13;;;16.04;69.51
21900;BME280;11114;50.658;12.704;2022-07-12T04:02:40;96785.50;;;16.11;69.25
21900;BME280;11114;50.658;12.704;2022-07-12T04:05:07;96772.16;;;16.13;69.34
21900;BME280;11114;50.658;12.704;2022-07-12T04:07:35;96773.34;;;16.10;69.32
21900;BME280;11114;50.658;12.704;2022-07-12T04:10:03;96772.69;;;16.08;69.47
21900;BME280;11114;50.658;12.704;2022-07-12T04:12:30;96779.59;;;16.09;69.66
21900;BME280;11114;50.658;12.704;2022-07-12T04:14:57;96776.78;;;16.11;69.70
21900;BME280;11114;50.658;12.704;2022-07-12T04:17:23;96779.72;;;16.16;69.64
21900;BME280;11114;50.658;12.704;2022-07-12T04:19:50;96778.84;;;16.23;69.41
21900;BME280;11114;50.658;12.704;2022-07-12T04:22:17;96770.94;;;16.23;69.30
21900;BME280;11114;50.658;12.704;2022-07-12T04:24:44;96781.69;;;16.14;69.39
21900;BME280;11114;50.658;12.704;2022-07-12T04:27:10;96782.53;;;16.14;69.79
21900;BME280;11114;50.658;12.704;2022-07-12T04:29:37;96777.31;;;16.06;69.91
21900;BME280;11114;50.658;12.704;2022-07-12T04:32:04;96784.22;;;16.07;70.01
21900;BME280;11114;50.658;12.704;2022-07-12T04:34:31;96795.22;;;16.11;70.09
21900;BME280;11114;50.658;12.704;2022-07-12T04:36:57;96791.91;;;16.17;70.03
21900;BME280;11114;50.658;12.704;2022-07-12T04:39:24;96789.41;;;16.15;70.15
21900;BME280;11114;50.658;12.704;2022-07-12T04:41:51;96798.91;;;16.24;70.03
21900;BME280;11114;50.658;12.704;2022-07-12T04:44:18;96796.81;;;16.42;69.69
21900;BME280;11114;50.658;12.704;2022-07-12T04:46:45;96799.34;;;16.50;69.46
21900;BME280;11114;50.658;12.704;2022-07-12T04:49:12;96797.44;;;16.44;69.67
21900;BME280;11114;50.658;12.704;2022-07-12T04:51:39;96792.38;;;16.43;69.79
21900;BME280;11114;50.658;12.704;2022-07-12T04:54:06;96794.53;;;16.39;70.00
21900;BME280;11114;50.658;12.704;2022-07-12T04:56:32;96799.50;;;16.34;70.08
21900;BME280;11114;50.658;12.704;2022-07-12T04:58:59;96793.81;;;16.45;69.88
21900;BME280;11114;50.658;12.704;2022-07-12T05:01:30;96800.31;;;16.57;69.51
21900;BME280;11114;50.658;12.704;2022-07-12T05:03:57;96803.50;;;16.67;69.38
21900;BME280;11114;50.658;12.704;2022-07-12T05:06:24;96798.84;;;16.69;68.97
21900;BME280;11114;50.658;12.704;2022-07-12T05:08:51;96803.41;;;16.60;69.37
21900;BME280;11114;50.658;12.704;2022-07-12T05:11:18;96800.13;;;16.73;69.37
21900;BME280;11114;50.658;12.704;2022-07-12T05:13:45;96805.97;;;16.83;69.28
21900;BME280;11114;50.658;12.704;2022-07-12T05:16:11;96806.59;;;16.99;68.95
21900;BME280;11114;50.658;12.704;2022-07-12T05:18:38;96809.09;;;17.01;68.98
21900;BME280;11114;50.658;12.704;2022-07-12T05:21:05;96815.72;;;17.11;68.72
21900;BME280;11114;50.658;12.704;2022-07-12T05:23:32;96811.72;;;17.15;68.42
21900;BME280;11114;50.658;12.704;2022-07-12T05:25:59;96825.47;;;17.11;68.31
21900;BME280;11114;50.658;12.704;2022-07-12T05:28:25;96827.47;;;17.09;68.42
21900;BME280;11114;50.658;12.704;2022-07-12T05:30:52;96819.34;;;16.96;68.54
21900;BME280;11114;50.658;12.704;2022-07-12T05:33:20;96833.59;;;16.87;68.88
21900;BME280;11114;50.658;12.704;2022-07-12T05:35:47;96826.91;;;16.99;68.67
21900;BME280;11114;50.658;12.704;2022-07-12T05:38:14;96822.63;;;16.98;68.55
21900;BME280;11114;50.658;12.704;2022-07-12T05:40:40;96822.72;;;17.19;68.30
21900;BME280;11114;50.658;12.704;2022-07-12T05:43:07;96828.19;;;17.32;68.18
21900;BME280;11114;50.658;12.704;2022-07-12T05:45:34;96835.94;;;17.33;67.94
21900;BME280;11114;50.658;12.704;2022-07-12T05:48:01;96840.19;;;17.20;67.61
21900;BME280;11114;50.658;12.704;2022-07-12T05:50:27;96840.56;;;17.17;67.80
21900;BME280;11114;50.658;12.704;2022-07-12T05:52:54;96842.59;;;17.29;67.30
21900;BME280;11114;50.658;12.704;2022-07-12T05:55:40;96838.56;;;17.47;66.96
21900;BME280;11114;50.658;12.704;2022-07-12T05:58:08;96843.06;;;17.82;66.32
21900;BME280;11114;50.658;12.704;2022-07-12T06:00:35;96849.97;;;18.18;65.67
21900;BME280;11114;50.658;12.704;2022-07-12T06:03:02;96841.13;;;18.47;64.84
21900;BME280;11114;50.658;12.704;2022-07-12T06:05:29;96852.25;;;18.63;64.24
21900;BME280;11114;50.658;12.704;2022-07-12T06:07:56;96845.34;;;18.62;64.16
21900;BME280;11114;50.658;12.704;2022-07-12T06:10:23;96850.06;;;18.46;64.27
21900;BME280;11114;50.658;12.704;2022-07-12T06:12:50;96851.09;;;18.24;64.15
21900;BME280;11114;50.658;12.704;2022-07-12T06:15:17;96853.72;;;18.24;63.99
21900;BME280;11114;50.658;12.704;2022-07-12T06:17:44;96855.81;;;18.28;64.31
21900;BME280;11114;50.658;12.704;2022-07-12T06:20:11;96850.00;;;18.39;63.94
21900;BME280;11114;50.658;12.704;2022-07-12T06:22:37;96859.25;;;18.50;63.69
21900;BME280;11114;50.658;12.704;2022-07-12T06:25:05;96851.13;;;18.99;62.35
21900;BME280;11114;50.658;12.704;2022-07-12T06:27:52;96849.84;;;18.89;61.87
21900;BME280;11114;50.658;12.704;2022-07-12T06:30:20;96848.72;;;18.77;62.49
21900;BME280;11114;50.658;12.704;2022-07-12T06:32:48;96856.84;;;18.76;61.98
21900;BME280;11114;50.658;12.704;2022-07-12T06:35:15;96850.19;;;19.41;60.18
21900;BME280;11114;50.658;12.704;2022-07-12T06:37:42;96856.53;;;20.66;57.47
21900;BME280;11114;50.658;12.704;2022-07-12T06:40:10;96853.47;;;20.43;57.81
21900;BME280;11114;50.658;12.704;2022-07-12T06:42:37;96853.31;;;22.35;53.82
21900;BME280;11114;50.658;12.704;2022-07-12T06:45:04;96847.13;;;23.99;49.89
21900;BME280;11114;50.658;12.704;2022-07-12T06:47:31;96836.59;;;26.11;45.99
21900;BME280;11114;50.658;12.704;2022-07-12T06:49:58;96834.66;;;27.98;42.26
21900;BME280;11114;50.658;12.704;2022-07-12T06:52:25;96841.41;;;28.22;40.73
21900;BME280;11114;50.658;12.704;2022-07-12T06:54:57;96846.88;;;27.68;41.27
21900;BME280;11114;50.658;12.704;2022-07-12T06:57:24;96852.84;;;27.04;42.17
21900;BME280;11114;50.658;12.704;2022-07-12T06:59:53;96849.94;;;27.76;40.48
21900;BME280;11114;50.658;12.704;2022-07-12T07:02:21;96855.97;;;26.41;42.88
21900;BME280;11114;50.658;12.704;2022-07-12T07:04:48;96847.31;;;27.44;40.30
21900;BME280;11114;50.658;12.704;2022-07-12T07:07:15;96834.41;;;28.00;38.79
21900;BME280;11114;50.658;12.704;2022-07-12T07:09:42;96845.59;;;28.61;37.80
21900;BME280;11114;50.658;12.704;2022-07-12T07:12:09;96839.03;;;30.28;35.92
21900;BME280;11114;50.658;12.704;2022-07-12T07:14:36;96838.91;;;31.59;34.89
21900;BME280;11114;50.658;12.704;2022-07-12T07:17:03;96851.91;;;31.12;34.76
21900;BME280;11114;50.658;12.704;2022-07-12T07:19:30;96854.88;;;28.75;37.16
21900;BME280;11114;50.658;12.704;2022-07-12T07:21:57;96858.91;;;27.16;38.88
21900;BME280;11114;50.658;12.704;2022-07-12T07:24:25;96859.81;;;28.35;37.92
21900;BME280;11114;50.658;12.704;2022-07-12T07:26:52;96860.19;;;30.00;33.71
21900;BME280;11114;50.658;12.704;2022-07-12T07:29:24;96856.06;;;30.44;33.39
21900;BME280;11114;50.658;12.704;2022-07-12T07:32:09;96859.22;;;29.80;35.22
21900;BME280;11114;50.658;12.704;2022-07-12T07:34:36;96862.94;;;30.15;33.93
21900;BME280;11114;50.658;12.704;2022-07-12T07:37:03;96855.94;;;31.40;31.46
21900;BME280;11114;50.658;12.704;2022-07-12T07:39:30;96861.38;;;31.55;31.65
21900;BME280;11114;50.658;12.704;2022-07-12T07:41:57;96865.69;;;32.39;31.00
21900;BME280;11114;50.658;12.704;2022-07-12T07:44:24;96848.50;;;32.73;30.83
21900;BME280;11114;50.658;12.704;2022-07-12T07:46:59;96846.63;;;33.45;29.92
21900;BME280;11114;50.658;12.704;2022-07-12T07:49:27;96851.34;;;33.91;28.63
21900;BME280;11114;50.658;12.704;2022-07-12T07:51:53;96849.16;;;33.65;29.15
21900;BME280;11114;50.658;12.704;2022-07-12T07:54:20;96849.69;;;34.19;29.24
21900;BME280;11114;50.658;12.704;2022-07-12T07:56:47;96846.22;;;34.13;28.63
21900;BME280;11114;50.658;12.704;2022-07-12T07:59:14;96855.84;;;32.67;30.00
21900;BME280;11114;50.658;12.704;2022-07-12T08:01:41;96853.91;;;32.15;30.34
21900;BME280;11114;50.658;12.704;2022-07-12T08:04:20;96850.16;;;33.12;29.66
21900;BME280;11114;50.658;12.704;2022-07-12T08:06:49;96847.31;;;33.60;28.61
21900;BME280;11114;50.658;12.704;2022-07-12T08:09:16;96848.97;;;33.56;29.19
21900;BME280;11114;50.658;12.704;2022-07-12T08:11:43;96839.47;;;34.52;27.56
21900;BME280;11114;50.658;12.704;2022-07-12T08:14:10;96847.31;;;34.54;27.10
21900;BME280;11114;50.658;12.704;2022-07-12T08:16:37;96847.97;;;34.88;27.17
21900;BME280;11114;50.658;12.704;2022-07-12T08:19:04;96841.34;;;34.75;27.60
21900;BME280;11114;50.658;12.704;2022-07-12T08:21:31;96848.47;;;35.40;26.42
21900;BME280;11114;50.658;12.704;2022-07-12T08:23:58;96841.69;;;35.24;25.66
21900;BME280;11114;50.658;12.704;2022-07-12T08:26:25;96843.38;;;34.00;26.12
21900;BME280;11114;50.658;12.704;2022-07-12T08:28:51;96847.25;;;33.65;27.84
21900;BME280;11114;50.658;12.704;2022-07-12T08:31:18;96837.81;;;32.96;27.93
21900;BME280;11114;50.658;12.704;2022-07-12T08:33:45;96855.16;;;32.37;29.49
21900;BME280;11114;50.658;12.704;2022-07-12T08:36:12;96851.06;;;30.01;33.01
21900;BME280;11114;50.658;12.704;2022-07-12T08:38:39;96859.31;;;28.38;35.08
21900;BME280;11114;50.658;12.704;2022-07-12T08:41:14;96847.53;;;29.59;33.39
21900;BME280;11114;50.658;12.704;2022-07-12T08:43:41;96840.00;;;30.89;32.45
21900;BME280;11114;50.658;12.704;2022-07-12T08:46:11;96840.50;;;31.80;31.14
21900;BME280;11114;50.658;12.704;2022-07-12T08:48:39;96841.06;;;30.92;31.55
21900;BME280;11114;50.658;12.704;2022-07-12T08:51:09;96842.94;;;29.55;33.29
21900;BME280;11114;50.658;12.704;2022-07-12T08:53:37;96845.84;;;28.33;35.21
21900;BME280;11114;50.658;12.704;2022-07-12T08:56:04;96840.25;;;29.19;33.90
21900;BME280;11114;50.658;12.704;2022-07-12T08:58:32;96833.09;;;29.75;34.57
21900;BME280;11114;50.658;12.704;2022-07-12T09:00:59;96829.19;;;30.74;32.23
21900;BME280;11114;50.658;12.704;2022-07-12T09:03:27;96841.16;;;30.26;32.35
21900;BME280;11114;50.658;12.704;2022-07-12T09:05:56;96838.91;;;29.57;33.30
21900;BME280;11114;50.658;12.704;2022-07-12T09:08:28;96840.88;;;30.28;32.93
21900;BME280;11114;50.658;12.704;2022-07-12T09:11:01;96844.50;;;29.46;33.57
21900;BME280;11114;50.658;12.704;2022-07-12T09:13:53;96840.50;;;29.95;32.19
21900;BME280;11114;50.658;12.704;2022-07-12T09:16:25;96846.88;;;29.79;31.93
21900;BME280;11114;50.658;12.704;2022-07-12T09:19:12;96838.19;;;29.72;31.17
21900;BME280;11114;50.658;12.704;2022-07-12T09:21:46;96834.13;;;30.15;31.65
21900;BME280;11114;50.658;12.704;2022-07-12T09:24:14;96835.91;;;29.95;32.59
21900;BME280;11114;50.658;12.704;2022-07-12T09:26:41;96838.88;;;27.73;32.80
21900;BME280;11114;50.658;12.704;2022-07-12T09:29:09;96845.63;;;26.77;35.74
21900;BME280;11114;50.658;12.704;2022-07-12T09:31:50;96841.00;;;26.72;35.93
21900;BME280;11114;50.658;12.704;2022-07-12T09:34:35;96847.81;;;26.08;36.63
21900;BME280;11114;50.658;12.704;2022-07-12T09:37:21;96846.13;;;25.56;37.91
21900;BME280;11114;50.658;12.704;2022-07-12T09:39:49;96849.34;;;25.01;37.60
21900;BME280;11114;50.658;12.704;2022-07-12T09:42:17;96857.38;;;25.58;37.72
21900;BME280;11114;50.658;12.704;2022-07-12T09:44:53;96841.66;;;26.63;37.71
21900;BME280;11114;50.658;12.704;2022-07-12T09:47:20;96838.22;;;27.12;37.31
21900;BME280;11114;50.658;12.704;2022-07-12T09:49:49;96845.63;;;26.77;37.21
21900;BME280;11114;50.658;12.704;2022-07-12T09:52:20;96854.34;;;26.28;36.47
21900;BME280;11114;50.658;12.704;2022-07-12T09:54:50;96851.44;;;26.41;37.11
21900;BME280;11114;50.658;12.704;2022-07-12T09:59:49;96858.56;;;25.51;37.72
21900;BME280;11114;50.658;12.704;2022-07-12T10:02:17;96855.63;;;25.98;38.67
21900;BME280;11114;50.658;12.704;2022-07-12T10:04:46;96838.06;;;26.58;37.98
21900;BME280;11114;50.658;12.704;2022-07-12T10:07:14;96843.66;;;27.17;37.18
21900;BME280;11114;50.658;12.704;2022-07-12T10:09:44;96846.00;;;27.62;36.73
21900;BME280;11114;50.658;12.704;2022-07-12T10:12:15;96840.25;;;27.75;35.46
21900;BME280;11114;50.658;12.704;2022-07-12T10:14:44;96844.25;;;27.19;34.46
21900;BME280;11114;50.658;12.704;2022-07-12T10:17:11;96845.59;;;26.44;35.75
21900;BME280;11114;50.658;12.704;2022-07-12T10:19:40;96850.88;;;25.88;36.12
21900;BME280;11114;50.658;12.704;2022-07-12T10:22:18;96851.06;;;26.10;37.38
21900;BME280;11114;50.658;12.704;2022-07-12T10:24:50;96849.84;;;26.17;36.90
21900;BME280;11114;50.658;12.704;2022-07-12T10:29:52;96844.66;;;26.66;35.61
21900;BME280;11114;50.658;12.704;2022-07-12T10:32:42;96843.38;;;26.13;36.76
21900;BME280;11114;50.658;12.704;2022-07-12T10:35:18;96854.03;;;26.25;36.26
21900;BME280;11114;50.658;12.704;2022-07-12T10:38:13;96846.13;;;26.90;36.13
21900;BME280;11114;50.658;12.704;2022-07-12T10:40:41;96849.59;;;27.19;36.32
21900;BME280;11114;50.658;12.704;2022-07-12T10:43:14;96849.34;;;27.37;35.80
21900;BME280;11114;50.658;12.704;2022-07-12T10:45:43;96855.44;;;27.16;34.86
21900;BME280;11114;50.658;12.704;2022-07-12T10:51:15;96849.66;;;27.24;35.35
21900;BME280;11114;50.658;12.704;2022-07-12T10:53:43;96857.44;;;26.92;35.84
21900;BME280;11114;50.658;12.704;2022-07-12T10:58:49;96853.78;;;27.48;34.72
21900;BME280;11114;50.658;12.704;2022-07-12T11:01:21;96841.16;;;27.64;34.44
21900;BME280;11114;50.658;12.704;2022-07-12T11:04:10;96848.00;;;28.15;34.42
21900;BME280;11114;50.658;12.704;2022-07-12T11:06:41;96842.28;;;28.54;33.25
21900;BME280;11114;50.658;12.704;2022-07-12T11:09:12;96847.25;;;28.88;34.31
21900;BME280;11114;50.658;12.704;2022-07-12T11:11:47;96845.50;;;29.04;32.29
21900;BME280;11114;50.658;12.704;2022-07-12T11:14:26;96847.28;;;28.67;31.98
21900;BME280;11114;50.658;12.704;2022-07-12T11:16:53;96846.13;;;28.58;33.20
21900;BME280;11114;50.658;12.704;2022-07-12T11:19:26;96843.97;;;28.81;33.37
21900;BME280;11114;50.658;12.704;2022-07-12T11:21:54;96849.28;;;29.08;32.25
21900;BME280;11114;50.658;12.704;2022-07-12T11:24:33;96847.19;;;29.15;32.26
21900;BME280;11114;50.658;12.704;2022-07-12T11:27:03;96836.13;;;29.42;31.71
21900;BME280;11114;50.658;12.704;2022-07-12T11:29:31;96836.69;;;29.49;31.11
21900;BME280;11114;50.658;12.704;2022-07-12T11:32:03;96835.47;;;29.67;31.00
21900;BME280;11114;50.658;12.704;2022-07-12T11:34:37;96830.66;;;29.69;31.89
21900;BME280;11114;50.658;12.704;2022-07-12T11:37:05;96833.00;;;29.55;33.12
21900;BME280;11114;50.658;12.704;2022-07-12T11:39:41;96825.28;;;29.69;31.55
21900;BME280;11114;50.658;12.704;2022-07-12T11:42:08;96827.44;;;29.30;30.93
21900;BME280;11114;50.658;12.704;2022-07-12T11:47:10;96829.28;;;29.66;30.67
21900;BME280;11114;50.658;12.704;2022-07-12T11:49:42;96828.72;;;29.28;31.13
21900;BME280;11114;50.658;12.704;2022-07-12T11:52:14;96820.78;;;29.07;31.59
21900;BME280;11114;50.658;12.704;2022-07-12T11:54:41;96826.38;;;28.74;32.34
21900;BME280;11114;50.658;12.704;2022-07-12T11:57:08;96830.09;;;28.68;32.13
21900;BME280;11114;50.658;12.704;2022-07-12T11:59:36;96820.63;;;28.87;32.78
21900;BME280;11114;50.658;12.704;2022-07-12T12:02:07;96822.72;;;28.58;32.74
21900;BME280;11114;50.658;12.704;2022-07-12T12:04:54;96816.94;;;28.45;32.38
21900;BME280;11114;50.658;12.704;2022-07-12T12:07:22;96821.84;;;28.05;33.05
21900;BME280;11114;50.658;12.704;2022-07-12T12:10:12;96819.97;;;28.06;32.88
21900;BME280;11114;50.658;12.704;2022-07-12T12:12:47;96826.38;;;28.21;33.58
21900;BME280;11114;50.658;12.704;2022-07-12T12:15:16;96817.66;;;28.62;33.64
21900;BME280;11114;50.658;12.704;2022-07-12T12:17:59;96816.19;;;28.76;32.72
21900;BME280;11114;50.658;12.704;2022-07-12T12:20:29;96814.34;;;28.50;32.44
21900;BME280;11114;50.658;12.704;2022-07-12T12:23:00;96810.28;;;28.05;32.31
21900;BME280;11114;50.658;12.704;2022-07-12T12:25:29;96810.88;;;27.85;32.40
21900;BME280;11114;50.658;12.704;2022-07-12T12:28:03;96809.63;;;28.14;33.29
21900;BME280;11114;50.658;12.704;2022-07-12T12:30:53;96814.72;;;28.63;32.94
21900;BME280;11114;50.658;12.704;2022-07-12T12:33:37;96810.00;;;29.02;32.90
21900;BME280;11114;50.658;12.704;2022-07-12T12:36:27;96804.69;;;29.12;31.14
21900;BME280;11114;50.658;12.704;2022-07-12T12:38:56;96804.72;;;29.17;32.45
21900;BME280;11114;50.658;12.704;2022-07-12T12:41:25;96808.53;;;29.21;31.55
21900;BME280;11114;50.658;12.704;2022-07-12T12:49:09;96802.22;;;29.05;32.66
21900;BME280;11114;50.658;12.704;2022-07-12T12:51:56;96796.59;;;28.49;32.05
21900;BME280;11114;50.658;12.704;2022-07-12T12:54:34;96799.63;;;28.31;33.52
21900;BME280;11114;50.658;12.704;2022-07-12T12:57:01;96805.00;;;28.31;33.88
21900;BME280;11114;50.658;12.704;2022-07-12T12:59:28;96796.19;;;28.36;32.93
21900;BME280;11114;50.658;12.704;2022-07-12T13:01:55;96805.09;;;28.41;33.33
21900;BME280;11114;50.658;12.704;2022-07-12T13:04:22;96791.16;;;28.44;32.78
21900;BME280;11114;50.658;12.704;2022-07-12T13:06:48;96797.31;;;27.97;32.23
21900;BME280;11114;50.658;12.704;2022-07-12T13:09:15;96801.13;;;27.79;33.61
21900;BME280;11114;50.658;12.704;2022-07-12T13:11:42;96799.94;;;27.92;32.84
21900;BME280;11114;50.658;12.704;2022-07-12T13:14:09;96797.19;;;27.87;32.81
21900;BME280;11114;50.658;12.704;2022-07-12T13:16:35;96795.72;;;27.37;33.04
21900;BME280;11114;50.658;12.704;2022-07-12T13:19:03;96807.19;;;27.16;33.46